createdAt,value
2019-01-19T00:00:55.366Z,96.20
2019-01-19T00:03:47.873Z,96.20
2019-01-19T00:06:36.297Z,96.20
2019-01-19T00:09:13.499Z,96.10
2019-01-19T00:11:47.866Z,96.10
2019-01-19T00:14:19.978Z,96.30
2019-01-19T00:17:16.870Z,96.50
2019-01-19T00:20:21.489Z,96.40
2019-01-19T00:23:20.598Z,96.70
2019-01-19T00:26:17.101Z,96.60
2019-01-19T00:28:55.358Z,96.60
2019-01-19T00:31:32.226Z,96.80
2019-01-19T00:34:34.228Z,97.20
2019-01-19T00:37:06.046Z,96.90
2019-01-19T00:40:05.301Z,97.40
2019-01-19T00:42:36.966Z,97.80
2019-01-19T00:45:14.170Z,97.90
2019-01-19T00:48:06.808Z,98.10
2019-01-19T00:50:55.978Z,98.50
2019-01-19T00:53:30.229Z,98.60
2019-01-19T00:56:36.762Z,98.60
2019-01-19T00:59:08.416Z,98.60
2019-01-19T01:01:55.054Z,98.90
2019-01-19T01:04:29.392Z,99.10
2019-01-19T01:07:12.433Z,99.20
2019-01-19T01:09:56.110Z,99.40
2019-01-19T01:12:48.267Z,99.60
2019-01-19T01:15:28.746Z,99.50
2019-01-19T01:18:00.646Z,99.40
2019-01-19T01:20:38.150Z,99.40
2019-01-19T01:23:15.610Z,99.40
2019-01-19T01:26:20.682Z,99.60
2019-01-19T01:29:22.874Z,99.80
2019-01-19T01:31:57.696Z,99.90
2019-01-19T01:34:47.013Z,99.90
2019-01-19T01:37:27.246Z,99.90
2019-01-19T01:40:27.881Z,99.60
2019-01-19T01:43:16.074Z,99.90
2019-01-19T01:46:02.534Z,99.90
2019-01-19T01:48:43.138Z,99.90
2019-01-19T01:51:29.726Z,99.50
2019-01-19T01:54:16.418Z,99.30
2019-01-19T01:56:45.238Z,99.10
2019-01-19T01:59:28.926Z,99.50
2019-01-19T02:02:03.906Z,99.70
2019-01-19T02:05:04.334Z,99.40
2019-01-19T02:07:52.645Z,99.70
2019-01-19T02:10:48.452Z,99.90
2019-01-19T02:13:29.002Z,99.90
2019-01-19T02:16:32.411Z,99.50
2019-01-19T02:19:16.353Z,98.60
2019-01-19T02:21:50.565Z,98.20
2019-01-19T02:24:39.131Z,98.20
2019-01-19T02:27:31.146Z,98.00
2019-01-19T02:30:23.975Z,97.90
2019-01-19T02:32:58.287Z,97.60
2019-01-19T02:35:35.785Z,97.50
2019-01-19T02:38:19.282Z,97.40
2019-01-19T02:41:13.642Z,97.20
2019-01-19T02:43:50.591Z,96.70
2019-01-19T02:46:27.897Z,97.30
2019-01-19T02:49:20.694Z,97.30
2019-01-19T02:52:11.903Z,97.40
2019-01-19T02:54:52.469Z,97.40
2019-01-19T02:57:40.633Z,97.00
2019-01-19T03:00:32.727Z,97.10
2019-01-19T03:03:09.902Z,97.30
2019-01-19T03:05:44.247Z,97.90
2019-01-19T03:08:21.769Z,97.20
2019-01-19T03:11:16.066Z,97.70
2019-01-19T03:13:50.469Z,97.40
2019-01-19T03:16:40.321Z,97.80
2019-01-19T03:19:33.121Z,97.50
2019-01-19T03:22:19.749Z,97.90
2019-01-19T03:24:56.939Z,98.30
2019-01-19T03:27:42.982Z,97.70
2019-01-19T03:30:29.647Z,97.90
2019-01-19T03:33:21.096Z,97.70
2019-01-19T03:35:55.477Z,98.30
2019-01-19T03:38:51.433Z,98.20
2019-01-19T03:41:32.763Z,98.50
2019-01-19T03:44:04.406Z,99.00
2019-01-19T03:46:55.570Z,99.10
2019-01-19T03:49:33.054Z,99.30
2019-01-19T03:52:07.413Z,99.10
2019-01-19T03:54:55.590Z,98.90
2019-01-19T03:57:39.476Z,98.90
2019-01-19T04:00:16.843Z,99.50
2019-01-19T04:02:48.618Z,99.40
2019-01-19T04:05:38.238Z,99.50
2019-01-19T04:08:24.862Z,99.60
2019-01-19T04:11:07.910Z,99.40
2019-01-19T04:13:45.091Z,98.80
2019-01-19T04:16:19.706Z,98.60
2019-01-19T04:19:00.223Z,98.10
2019-01-19T04:21:44.236Z,98.50
2019-01-19T04:24:15.878Z,98.50
2019-01-19T04:26:44.898Z,98.20
2019-01-19T04:29:13.535Z,98.60
2019-01-19T04:31:42.118Z,98.00
2019-01-19T04:34:10.891Z,97.90
2019-01-19T04:36:39.809Z,97.40
2019-01-19T04:39:10.170Z,96.90
2019-01-19T04:41:38.804Z,96.80
2019-01-19T04:44:07.382Z,97.00
2019-01-19T04:46:35.951Z,96.90
2019-01-19T04:49:04.742Z,96.90
2019-01-19T04:51:33.375Z,96.80
2019-01-19T04:54:02.022Z,96.50
2019-01-19T04:56:30.658Z,96.50
2019-01-19T04:58:59.248Z,96.30
2019-01-19T05:01:27.830Z,96.30
2019-01-19T05:03:56.398Z,96.20
2019-01-19T05:06:30.325Z,95.80
2019-01-19T05:08:55.264Z,95.50
2019-01-19T05:11:23.843Z,95.40
2019-01-19T05:13:52.410Z,95.20
2019-01-19T05:16:21.057Z,95.00
2019-01-19T05:18:49.622Z,94.90
2019-01-19T05:21:18.785Z,95.00
2019-01-19T05:23:47.622Z,95.10
2019-01-19T05:26:16.190Z,95.10
2019-01-19T05:28:44.772Z,94.90
2019-01-19T05:31:13.339Z,94.90
2019-01-19T05:33:41.918Z,94.80
2019-01-19T05:36:10.626Z,94.80
2019-01-19T05:38:39.210Z,94.80
2019-01-19T05:41:07.817Z,94.90
2019-01-19T05:43:36.408Z,94.70
2019-01-19T05:46:05.122Z,94.60
2019-01-19T05:48:33.690Z,94.30
2019-01-19T05:51:02.343Z,94.10
2019-01-19T05:53:30.909Z,94.00
2019-01-19T05:55:59.490Z,94.30
2019-01-19T05:58:28.149Z,93.90
2019-01-19T06:00:56.767Z,93.80
2019-01-19T06:03:25.334Z,94.00
2019-01-19T06:05:54.053Z,94.20
2019-01-19T06:08:22.690Z,94.40
2019-01-19T06:10:51.325Z,94.30
2019-01-19T06:13:19.911Z,94.20
2019-01-19T06:15:48.474Z,94.30
2019-01-19T06:18:17.065Z,94.20
2019-01-19T06:20:45.722Z,94.30
2019-01-19T06:23:14.314Z,94.10
2019-01-19T06:25:42.886Z,94.20
2019-01-19T06:28:11.550Z,94.30
2019-01-19T06:30:40.116Z,94.30
2019-01-19T06:33:08.716Z,94.40
2019-01-19T06:35:37.384Z,94.40
2019-01-19T06:38:06.186Z,94.40
2019-01-19T06:40:34.766Z,94.40
2019-01-19T06:43:03.406Z,94.40
2019-01-19T06:45:31.987Z,94.30
2019-01-19T06:48:00.734Z,94.40
2019-01-19T06:50:29.316Z,94.40
2019-01-19T06:52:57.947Z,94.50
2019-01-19T06:55:29.226Z,94.70
2019-01-19T06:57:57.867Z,94.70
2019-01-19T07:00:26.440Z,94.50
2019-01-19T07:02:55.082Z,94.30
2019-01-19T07:05:23.791Z,94.30
2019-01-19T07:07:52.445Z,94.50
2019-01-19T07:10:23.621Z,94.70
2019-01-19T07:12:52.342Z,95.00
2019-01-19T07:15:21.245Z,95.00
2019-01-19T07:17:51.074Z,95.30
2019-01-19T07:20:25.669Z,95.40
2019-01-19T07:22:54.263Z,95.50
2019-01-19T07:25:23.004Z,95.50
2019-01-19T07:27:51.794Z,95.50
2019-01-19T07:30:20.611Z,95.30
2019-01-19T07:32:49.452Z,95.40
2019-01-19T07:35:18.272Z,95.50
2019-01-19T07:37:46.933Z,95.80
2019-01-19T07:40:19.149Z,96.00
2019-01-19T07:42:49.490Z,95.80
2019-01-19T07:45:18.146Z,95.90
2019-01-19T07:47:46.796Z,96.00
2019-01-19T07:50:19.024Z,95.70
2019-01-19T07:52:47.897Z,95.80
2019-01-19T07:55:19.573Z,95.80
2019-01-19T07:57:48.218Z,96.00
2019-01-19T08:00:31.351Z,96.00
2019-01-19T08:03:00.074Z,95.90
2019-01-19T08:05:28.710Z,96.20
2019-01-19T08:07:57.358Z,96.00
2019-01-19T08:10:26.401Z,96.00
2019-01-19T08:12:55.246Z,96.10
2019-01-19T08:15:29.448Z,95.90
2019-01-19T08:17:58.331Z,95.90
2019-01-19T08:20:27.153Z,96.00
2019-01-19T08:22:55.720Z,96.10
2019-01-19T08:25:27.439Z,96.20
2019-01-19T08:27:56.079Z,96.30
2019-01-19T08:30:26.897Z,96.30
2019-01-19T08:32:55.615Z,96.20
2019-01-19T08:35:25.922Z,96.10
2019-01-19T08:37:54.557Z,95.90
2019-01-19T08:40:25.946Z,95.70
2019-01-19T08:43:18.460Z,95.70
2019-01-19T08:45:49.058Z,95.40
2019-01-19T08:48:17.763Z,94.70
2019-01-19T08:50:46.404Z,93.40
2019-01-19T08:53:18.152Z,91.30
2019-01-19T08:55:46.781Z,88.90
2019-01-19T08:58:15.484Z,88.50
2019-01-19T09:00:44.057Z,89.50
2019-01-19T09:03:12.622Z,88.80
2019-01-19T09:05:41.266Z,87.70
2019-01-19T09:08:10.449Z,86.20
2019-01-19T09:10:39.153Z,85.10
2019-01-19T09:13:07.798Z,86.70
2019-01-19T09:15:37.034Z,89.90
2019-01-19T09:18:05.746Z,90.60
2019-01-19T09:20:34.449Z,90.90
2019-01-19T09:23:07.730Z,90.90
2019-01-19T09:25:36.357Z,90.10
2019-01-19T09:28:05.062Z,89.80
2019-01-19T09:30:33.640Z,88.50
2019-01-19T09:33:02.743Z,85.70
2019-01-19T09:35:31.526Z,84.40
2019-01-19T09:38:00.162Z,84.40
2019-01-19T09:40:28.806Z,84.20
2019-01-19T09:42:57.545Z,86.00
2019-01-19T09:45:26.179Z,86.90
2019-01-19T09:47:54.894Z,87.40
2019-01-19T09:50:23.598Z,88.00
2019-01-19T09:52:52.255Z,89.50
2019-01-19T09:55:20.817Z,90.30
2019-01-19T09:57:49.468Z,90.50
2019-01-19T10:00:35.531Z,90.70
2019-01-19T10:02:58.914Z,90.90
2019-01-19T10:05:28.229Z,90.90
2019-01-19T10:07:56.934Z,90.60
2019-01-19T10:10:25.513Z,90.30
2019-01-19T10:12:54.154Z,90.00
2019-01-19T10:15:23.251Z,89.70
2019-01-19T10:17:51.981Z,89.10
2019-01-19T10:20:23.584Z,88.10
2019-01-19T10:22:52.316Z,87.40
2019-01-19T10:25:20.997Z,86.10
2019-01-19T10:27:49.710Z,86.00
2019-01-19T10:30:37.726Z,85.50
2019-01-19T10:33:06.641Z,84.70
2019-01-19T10:35:35.209Z,87.10
2019-01-19T10:38:04.052Z,86.80
2019-01-19T10:40:32.686Z,87.80
2019-01-19T10:43:01.262Z,88.60
2019-01-19T10:45:29.961Z,89.80
2019-01-19T10:47:58.646Z,90.10
2019-01-19T10:50:27.346Z,90.00
2019-01-19T10:52:56.065Z,89.60
2019-01-19T10:55:25.183Z,87.90
2019-01-19T10:57:53.866Z,87.90
2019-01-19T11:00:25.503Z,88.80
2019-01-19T11:02:54.710Z,88.90
2019-01-19T11:05:23.426Z,88.80
2019-01-19T11:07:52.299Z,88.40
2019-01-19T11:10:26.755Z,87.90
2019-01-19T11:12:55.566Z,88.80
2019-01-19T11:15:24.705Z,88.70
2019-01-19T11:17:53.518Z,88.70
2019-01-19T11:20:25.649Z,89.60
2019-01-19T11:22:55.146Z,90.30
2019-01-19T11:25:23.974Z,90.10
2019-01-19T11:27:52.686Z,89.80
2019-01-19T11:30:28.971Z,89.50
2019-01-19T11:32:57.770Z,89.20
2019-01-19T11:35:26.678Z,87.60
2019-01-19T11:37:55.501Z,85.60
2019-01-19T11:40:26.891Z,85.60
2019-01-19T11:42:55.604Z,86.60
2019-01-19T11:45:24.252Z,87.00
2019-01-19T11:47:52.884Z,86.30
2019-01-19T11:50:22.747Z,86.90
2019-01-19T11:52:51.702Z,86.70
2019-01-19T11:55:21.481Z,86.60
2019-01-19T11:57:55.930Z,86.70
2019-01-19T12:00:27.321Z,86.40
2019-01-19T12:02:56.126Z,87.30
2019-01-19T12:05:24.970Z,87.60
2019-01-19T12:07:53.675Z,87.80
2019-01-19T12:10:24.379Z,87.50
2019-01-19T12:12:53.190Z,87.00
2019-01-19T12:15:22.094Z,87.30
2019-01-19T12:17:50.878Z,87.00
2019-01-19T12:20:27.982Z,87.40
2019-01-19T12:22:56.704Z,87.00
2019-01-19T12:25:25.729Z,87.70
2019-01-19T12:27:54.482Z,87.90
2019-01-19T12:30:25.954Z,86.30
2019-01-19T12:32:54.577Z,86.80
2019-01-19T12:35:23.146Z,86.60
2019-01-19T12:37:51.785Z,87.50
2019-01-19T12:40:22.802Z,87.50
2019-01-19T12:42:53.902Z,87.40
2019-01-19T12:45:39.934Z,87.30
2019-01-19T12:48:08.570Z,87.80
2019-01-19T12:50:37.142Z,87.60
2019-01-19T12:53:06.049Z,88.20
2019-01-19T12:55:34.774Z,88.10
2019-01-19T12:58:03.490Z,88.50
2019-01-19T13:00:32.054Z,89.20
2019-01-19T13:03:00.716Z,88.90
2019-01-19T13:05:33.136Z,89.10
2019-01-19T13:08:02.330Z,89.00
2019-01-19T13:10:33.971Z,88.70
2019-01-19T13:13:03.786Z,89.30
2019-01-19T13:15:35.426Z,89.30
2019-01-19T13:18:19.198Z,89.60
2019-01-19T13:21:11.247Z,89.60
2019-01-19T13:23:59.322Z,90.00
2019-01-19T13:26:56.386Z,89.90
2019-01-19T13:29:43.269Z,89.90
2019-01-19T13:32:20.497Z,89.50
2019-01-19T13:35:00.850Z,90.10
2019-01-19T13:37:40.970Z,90.00
2019-01-19T13:40:27.826Z,89.90
2019-01-19T13:43:14.651Z,90.20
2019-01-19T13:46:04.405Z,90.00
2019-01-19T13:48:47.872Z,90.10
2019-01-19T13:51:25.134Z,90.40
2019-01-19T13:53:57.158Z,90.40
2019-01-19T13:56:37.643Z,90.40
2019-01-19T13:59:36.885Z,90.40
2019-01-19T14:02:28.366Z,90.70
2019-01-19T14:05:22.970Z,89.70
2019-01-19T14:08:23.742Z,89.60
2019-01-19T14:11:10.599Z,90.30
2019-01-19T14:14:12.734Z,90.40
2019-01-19T14:17:19.615Z,90.60
2019-01-19T14:19:57.070Z,90.80
2019-01-19T14:22:37.654Z,90.90
2019-01-19T14:25:12.254Z,90.90
2019-01-19T14:27:55.077Z,91.10
2019-01-19T14:30:41.553Z,91.20
2019-01-19T14:33:16.074Z,91.10
2019-01-19T14:36:14.383Z,91.20
2019-01-19T14:39:19.525Z,91.30
2019-01-19T14:42:06.338Z,91.10
2019-01-19T14:44:54.583Z,91.20
2019-01-19T14:47:31.822Z,91.30
2019-01-19T14:50:15.523Z,91.30
2019-01-19T14:53:11.718Z,91.40
2019-01-19T14:55:51.617Z,91.50
2019-01-19T14:58:32.347Z,91.50
2019-01-19T15:01:12.738Z,91.50
2019-01-19T15:03:44.378Z,91.50
2019-01-19T15:06:36.537Z,91.80
2019-01-19T15:09:16.906Z,91.90
2019-01-19T15:11:54.274Z,91.90
2019-01-19T15:14:40.966Z,91.90
2019-01-19T15:17:24.599Z,92.00
2019-01-19T15:19:56.458Z,92.10
2019-01-19T15:22:34.091Z,92.00
2019-01-19T15:25:17.698Z,92.10
2019-01-19T15:28:08.938Z,92.10
2019-01-19T15:30:43.405Z,92.20
2019-01-19T15:33:17.624Z,92.30
2019-01-19T15:35:55.572Z,92.20
2019-01-19T15:38:33.062Z,92.00
2019-01-19T15:41:27.758Z,92.00
2019-01-19T15:44:18.859Z,92.10
2019-01-19T15:47:11.628Z,92.00
2019-01-19T15:50:13.137Z,92.10
2019-01-19T15:53:02.691Z,92.20
2019-01-19T15:55:34.325Z,92.20
2019-01-19T15:58:23.762Z,92.40
2019-01-19T16:01:13.617Z,92.30
2019-01-19T16:03:51.190Z,92.30
2019-01-19T16:06:50.247Z,92.50
2019-01-19T16:09:30.914Z,92.60
2019-01-19T16:12:23.806Z,92.70
2019-01-19T16:15:01.291Z,93.00
2019-01-19T16:17:38.710Z,93.00
2019-01-19T16:20:40.414Z,93.00
2019-01-19T16:23:29.950Z,93.20
2019-01-19T16:26:13.631Z,93.20
2019-01-19T16:28:53.993Z,93.20
2019-01-19T16:31:55.860Z,93.40
2019-01-19T16:34:45.982Z,93.40
2019-01-19T16:37:26.642Z,93.40
2019-01-19T16:40:18.829Z,93.70
2019-01-19T16:42:50.466Z,93.70
2019-01-19T16:45:28.005Z,93.80
2019-01-19T16:48:31.678Z,93.80
2019-01-19T16:51:03.414Z,93.90
2019-01-19T16:53:37.682Z,94.20
2019-01-19T16:56:09.391Z,94.50
2019-01-19T16:58:41.042Z,94.50
2019-01-19T17:01:15.563Z,95.10
2019-01-19T17:03:50.501Z,94.70
2019-01-19T17:06:25.038Z,94.90
2019-01-19T17:09:11.646Z,95.00
2019-01-19T17:11:58.273Z,95.00
2019-01-19T17:14:32.878Z,94.80
2019-01-19T17:17:10.719Z,94.90
2019-01-19T17:20:01.380Z,94.80
2019-01-19T17:22:39.390Z,95.00
2019-01-19T17:25:19.362Z,94.90
2019-01-19T17:27:56.690Z,94.80
2019-01-19T17:30:55.429Z,94.80
2019-01-19T17:33:29.848Z,95.10
2019-01-19T17:36:41.706Z,94.90
2019-01-19T17:39:22.194Z,94.60
2019-01-19T17:42:25.606Z,94.50
2019-01-19T17:45:18.330Z,94.40
2019-01-19T17:48:05.247Z,94.40
2019-01-19T17:53:47.458Z,93.80
2019-01-19T17:56:36.679Z,93.90
2019-01-19T17:59:29.545Z,93.90
2019-01-19T18:02:06.805Z,93.70
2019-01-19T18:04:43.829Z,93.60
2019-01-19T18:07:24.174Z,93.50
2019-01-19T18:10:15.634Z,93.40
2019-01-19T18:13:10.208Z,93.30
2019-01-19T18:15:53.869Z,93.20
2019-01-19T18:18:47.158Z,93.40
2019-01-19T18:21:27.506Z,93.30
2019-01-19T18:24:17.226Z,93.40
2019-01-19T18:26:51.906Z,93.40
2019-01-19T18:29:29.073Z,93.30
2019-01-19T18:32:06.266Z,93.40
2019-01-19T18:34:43.846Z,93.40
2019-01-19T18:37:31.774Z,93.50
2019-01-19T18:40:19.946Z,93.60
2019-01-19T18:42:54.526Z,93.50
2019-01-19T18:45:34.974Z,93.50
2019-01-19T18:48:09.298Z,93.50
2019-01-19T18:50:52.767Z,93.20
2019-01-19T18:53:39.682Z,93.30
2019-01-19T18:56:29.186Z,93.40
2019-01-19T18:59:09.672Z,93.40
2019-01-19T19:01:56.386Z,93.30
2019-01-19T19:04:36.702Z,93.30
2019-01-19T19:07:17.336Z,93.50
2019-01-19T19:10:05.678Z,93.60
2019-01-19T19:12:49.311Z,93.80
2019-01-19T19:15:23.669Z,93.80
2019-01-19T19:18:06.794Z,93.90
2019-01-19T19:20:41.406Z,94.10
2019-01-19T19:23:16.034Z,94.20
2019-01-19T19:26:05.854Z,94.30
2019-01-19T19:28:40.516Z,94.50
2019-01-19T19:31:21.451Z,94.50
2019-01-19T19:33:55.586Z,94.50
2019-01-19T19:36:51.706Z,94.50
2019-01-19T19:39:48.994Z,94.50
2019-01-19T19:42:35.695Z,94.60
2019-01-19T19:45:19.094Z,94.50
2019-01-19T19:48:12.078Z,94.60
2019-01-19T19:50:55.526Z,94.60
2019-01-19T19:53:24.299Z,94.60
2019-01-19T19:55:51.813Z,94.60
2019-01-19T19:58:20.441Z,94.50
2019-01-19T20:00:50.465Z,94.50
2019-01-19T20:03:19.101Z,94.60
2019-01-19T20:05:47.678Z,94.50
2019-01-19T20:08:16.327Z,94.40
2019-01-19T20:10:45.030Z,94.20
2019-01-19T20:13:13.597Z,94.10
2019-01-19T20:15:42.174Z,94.10
2019-01-19T20:18:10.793Z,94.30
2019-01-19T20:20:39.397Z,94.40
2019-01-19T20:23:07.962Z,94.30
2019-01-19T20:25:36.599Z,94.40
2019-01-19T20:28:05.243Z,94.40
2019-01-19T20:30:33.809Z,94.70
2019-01-19T20:33:02.388Z,94.90
2019-01-19T20:35:31.005Z,95.00
2019-01-19T20:38:18.922Z,94.80
2019-01-19T20:40:47.526Z,94.60
2019-01-19T20:43:16.117Z,94.50
2019-01-19T20:45:44.842Z,94.50
2019-01-19T20:48:13.982Z,94.60
2019-01-19T20:50:42.550Z,94.70
2019-01-19T20:53:11.125Z,94.70
2019-01-19T20:55:39.702Z,94.90
2019-01-19T20:58:08.363Z,95.00
2019-01-19T21:00:37.353Z,95.20
2019-01-19T21:03:06.043Z,95.50
2019-01-19T21:05:34.690Z,95.10
2019-01-19T21:08:03.262Z,92.70
2019-01-19T21:10:32.234Z,92.30
2019-01-19T21:13:00.871Z,91.60
2019-01-19T21:15:29.529Z,90.90
2019-01-19T21:17:58.085Z,91.50
2019-01-19T21:20:26.718Z,90.90
2019-01-19T21:22:55.294Z,89.40
2019-01-19T21:25:23.879Z,87.80
2019-01-19T21:27:52.437Z,85.00
2019-01-19T21:30:21.301Z,82.90
2019-01-19T21:32:49.834Z,83.10
2019-01-19T21:35:18.477Z,83.60
2019-01-19T21:37:47.346Z,84.00
2019-01-19T21:40:16.060Z,85.70
2019-01-19T21:42:44.626Z,86.40
2019-01-19T21:45:18.814Z,86.30
2019-01-19T21:47:47.305Z,86.20
2019-01-19T21:50:16.124Z,87.40
2019-01-19T21:52:44.855Z,86.40
2019-01-19T21:55:13.710Z,86.50
2019-01-19T21:57:42.278Z,86.40
2019-01-19T22:00:16.826Z,86.50
2019-01-19T22:02:45.468Z,85.60
2019-01-19T22:05:14.369Z,85.60
2019-01-19T22:07:43.082Z,85.90
2019-01-19T22:10:17.124Z,86.10
2019-01-19T22:12:45.834Z,87.20
2019-01-19T22:15:18.737Z,87.40
2019-01-19T22:17:47.606Z,86.30
2019-01-19T22:20:17.883Z,85.80
2019-01-19T22:22:47.593Z,85.70
2019-01-19T22:25:16.444Z,86.80
2019-01-19T22:27:46.810Z,86.90
2019-01-19T22:30:21.558Z,86.40
2019-01-19T22:32:51.707Z,87.20
2019-01-19T22:35:21.186Z,86.80
2019-01-19T22:37:53.279Z,87.00
2019-01-19T22:40:24.213Z,88.10
2019-01-19T22:42:54.452Z,88.50
2019-01-19T22:45:23.590Z,88.50
2019-01-19T22:47:52.284Z,88.50
2019-01-19T22:50:23.464Z,88.90
2019-01-19T22:52:52.274Z,88.50
2019-01-19T22:55:21.258Z,88.50
2019-01-19T22:57:49.906Z,88.00
2019-01-19T23:00:28.762Z,87.90
2019-01-19T23:03:02.168Z,88.40
2019-01-19T23:05:30.582Z,88.80
2019-01-19T23:07:59.266Z,88.60
2019-01-19T23:10:28.253Z,88.90
2019-01-19T23:12:56.838Z,88.90
2019-01-19T23:15:25.478Z,89.20
2019-01-19T23:17:54.234Z,89.90
2019-01-19T23:20:22.798Z,90.00
2019-01-19T23:22:51.634Z,90.00
2019-01-19T23:25:20.278Z,89.70
2019-01-19T23:27:48.850Z,89.90
2019-01-19T23:30:17.562Z,89.20
2019-01-19T23:32:46.126Z,89.70
2019-01-19T23:35:14.865Z,89.20
2019-01-19T23:37:43.566Z,89.20
2019-01-19T23:40:13.885Z,89.30
2019-01-19T23:42:47.152Z,89.20
2019-01-19T23:45:12.951Z,89.70
2019-01-19T23:47:41.527Z,90.30
2019-01-19T23:50:11.025Z,90.50
2019-01-19T23:52:39.678Z,90.80
2019-01-19T23:55:08.485Z,90.90
2019-01-19T23:57:37.130Z,91.00
